Time;durP1;ratioP1;P1;durP2;ratioP2;P2;SDS_P1;SDS_P2;PMS_P1;PMS_P2;Temp;Humidity;BMP_temperature;BMP_pressure;BME280_temperature;BME280_humidity;BME280_pressure;Samples;Min_cycle;Max_cycle;Signal;HPM_P1;HPM_P2
2022/11/13 00:40:58;;;;;;;6.55;3.67;;;;;;;7.87;100.00;100611.61;1733772;81;20995;-81
2022/11/13 00:43:44;;;;;;;10.00;3.98;;;;;;;7.83;100.00;100607.78;1736170;81;20998;-84
2022/11/13 00:46:29;;;;;;;6.10;4.00;;;;;;;7.80;100.00;100598.75;1710193;82;20897;-82
2022/11/13 00:49:15;;;;;;;5.75;3.40;;;;;;;7.75;100.00;100593.83;1701747;83;21502;-82
2022/11/13 00:52:01;;;;;;;6.45;3.90;;;;;;;7.73;100.00;100595.46;1688630;82;21559;-83
2022/11/13 00:54:46;;;;;;;7.70;3.65;;;;;;;7.71;100.00;100590.81;1696587;83;21270;-82
2022/11/13 00:57:31;;;;;;;4.22;2.87;;;;;;;7.71;100.00;100596.28;1701322;82;21627;-82
2022/11/13 01:00:17;;;;;;;6.15;2.92;;;;;;;7.71;100.00;100597.65;1694931;83;21020;-83
2022/11/13 01:03:02;;;;;;;6.42;3.42;;;;;;;7.70;100.00;100584.25;1676354;85;21610;-83
2022/11/13 01:05:46;;;;;;;7.92;2.98;;;;;;;7.67;100.00;100585.61;1683565;85;20948;-83
2022/11/13 01:08:31;;;;;;;10.85;3.55;;;;;;;7.66;100.00;100586.70;1646432;84;21297;-82
2022/11/13 01:11:19;;;;;;;5.75;2.60;;;;;;;7.64;100.00;100576.59;1657844;84;21584;-82
2022/11/13 01:14:04;;;;;;;4.35;2.80;;;;;;;7.63;100.00;100582.60;1700472;82;21543;-82
2022/11/13 01:16:49;;;;;;;4.47;2.87;;;;;;;7.61;100.00;100586.16;1706905;83;21030;-81
2022/11/13 01:19:35;;;;;;;6.50;2.95;;;;;;;7.60;100.00;100582.33;1705610;83;20945;-83
2022/11/13 01:22:20;;;;;;;5.87;3.80;;;;;;;7.61;100.00;100575.77;1709117;83;22010;-83
2022/11/13 01:25:06;;;;;;;6.15;3.17;;;;;;;7.61;100.00;100583.42;1709744;83;21507;-82
2022/11/13 01:27:52;;;;;;;4.70;3.62;;;;;;;7.60;100.00;100575.48;1702102;83;21028;-84
2022/11/13 01:30:39;;;;;;;8.68;3.25;;;;;;;7.60;100.00;100575.48;1669786;85;21472;-84
2022/11/13 01:33:24;;;;;;;5.60;3.55;;;;;;;7.58;100.00;100572.20;1710378;82;20936;-84
2022/11/13 01:36:19;;;;;;;6.92;3.42;;;;;;;7.59;100.00;100568.38;1703987;83;21903;-84
2022/11/13 01:39:05;;;;;;;7.28;3.40;;;;;;;7.59;100.00;100567.02;1704742;82;21160;-77
2022/11/13 01:41:51;;;;;;;6.40;3.47;;;;;;;7.57;100.00;100568.66;1703187;84;20936;-78
2022/11/13 01:44:54;;;;;;;9.50;3.62;;;;;;;7.58;100.00;100570.84;1710650;84;20908;-77
2022/11/13 01:47:40;;;;;;;4.90;3.30;;;;;;;7.55;100.00;100564.00;1698507;84;20948;-77
2022/11/13 01:50:27;;;;;;;10.65;3.80;;;;;;;7.53;100.00;100556.63;1729330;82;22736;-82
2022/11/13 01:53:12;;;;;;;6.87;3.62;;;;;;;7.52;100.00;100560.99;1723749;82;20913;-84
2022/11/13 01:55:58;;;;;;;7.58;4.30;;;;;;;7.51;100.00;100563.48;1725025;82;21486;-80
2022/11/13 01:58:50;;;;;;;7.92;4.67;;;;;;;7.51;100.00;100556.66;1735967;82;20947;-77
2022/11/13 02:01:36;;;;;;;7.47;3.67;;;;;;;7.52;100.00;100567.83;1728751;82;20951;-80
2022/11/13 02:04:22;;;;;;;7.00;3.92;;;;;;;7.52;100.00;100569.19;1681784;84;21364;-81
2022/11/13 02:07:10;;;;;;;6.62;3.58;;;;;;;7.52;100.00;100571.38;1728005;82;21442;-79
2022/11/13 02:09:56;;;;;;;6.37;3.67;;;;;;;7.51;100.00;100567.00;1682661;84;20881;-84
2022/11/13 02:12:48;;;;;;;8.05;3.08;;;;;;;7.51;100.00;100573.05;1744298;81;20916;-78
2022/11/13 02:15:35;;;;;;;5.42;3.80;;;;;;;7.51;100.00;100571.11;1767896;79;21491;-80
2022/11/13 02:18:21;;;;;;;9.13;4.05;;;;;;;7.51;100.00;100568.95;1769299;79;21313;-80
2022/11/13 02:21:36;;;;;;;9.00;3.80;;;;;;;7.50;100.00;100570.86;1769148;79;20940;-77
2022/11/13 02:24:37;;;;;;;5.62;3.47;;;;;;;7.50;100.00;100580.42;1726571;81;21924;-75
2022/11/13 02:27:41;;;;;;;8.83;3.52;;;;;;;7.51;100.00;100576.56;1731502;81;20979;-78
2022/11/13 02:30:30;;;;;;;5.62;2.77;;;;;;;7.53;100.00;100579.03;1701783;82;20901;-74
2022/11/13 02:33:26;;;;;;;4.72;2.67;;;;;;;7.53;100.00;100579.03;1756539;80;21271;-76
2022/11/13 02:36:11;;;;;;;4.80;2.92;;;;;;;7.53;100.00;100575.75;1737891;81;21430;-76
2022/11/13 02:39:01;;;;;;;6.50;2.75;;;;;;;7.51;100.00;100575.20;1737632;82;21410;-78
2022/11/13 02:41:46;;;;;;;7.42;3.15;;;;;;;7.52;100.00;100577.39;1734689;81;21039;-86
2022/11/13 02:44:31;;;;;;;5.85;3.45;;;;;;;7.52;100.00;100570.55;1737834;81;21010;-86
2022/11/13 02:47:17;;;;;;;3.92;2.50;;;;;;;7.54;100.00;100575.20;1736661;82;21260;-80
2022/11/13 02:50:04;;;;;;;3.25;2.12;;;;;;;7.55;100.00;100574.11;1733867;81;20987;-75
2022/11/13 02:52:49;;;;;;;3.22;2.30;;;;;;;7.54;100.00;100576.57;1734084;82;20899;-75
2022/11/13 02:55:36;;;;;;;4.05;2.40;;;;;;;7.54;100.00;100576.03;1735934;82;20983;-85
2022/11/13 02:58:20;;;;;;;4.20;2.05;;;;;;;7.56;100.00;100577.95;1735772;81;20939;-85
2022/11/13 03:01:05;;;;;;;4.40;2.20;;;;;;;7.56;100.00;100577.95;1737211;82;21517;-83
2022/11/13 03:03:50;;;;;;;5.97;2.47;;;;;;;7.57;100.00;100576.03;1733960;82;20923;-86
2022/11/13 03:06:35;;;;;;;2.87;2.15;;;;;;;7.59;100.00;100577.95;1736495;81;20987;-82
2022/11/13 03:09:23;;;;;;;4.22;2.55;;;;;;;7.59;100.00;100571.94;1737548;82;20903;-82
2022/11/13 03:12:09;;;;;;;2.85;1.98;;;;;;;7.59;100.00;100570.57;1734321;81;20924;-82
2022/11/13 03:14:56;;;;;;;4.08;2.27;;;;;;;7.60;100.00;100576.31;1738462;81;21011;-83
2022/11/13 03:17:40;;;;;;;3.37;2.02;;;;;;;7.60;100.00;100576.31;1738229;81;20964;-85
2022/11/13 03:20:25;;;;;;;7.20;2.10;;;;;;;7.62;100.00;100580.14;1737623;82;21434;-83
2022/11/13 03:23:11;;;;;;;3.60;2.10;;;;;;;7.61;100.00;100575.77;1735817;82;20884;-81
2022/11/13 03:25:56;;;;;;;3.42;1.98;;;;;;;7.63;100.00;100579.05;1734325;82;21008;-82
2022/11/13 03:28:41;;;;;;;2.67;1.70;;;;;;;7.62;100.00;100582.33;1733971;82;21256;-82
2022/11/13 03:31:26;;;;;;;3.87;2.12;;;;;;;7.62;100.00;100575.49;1735689;82;20939;-83
2022/11/13 03:34:12;;;;;;;3.60;2.02;;;;;;;7.61;100.00;100568.94;1736249;82;20986;-82
2022/11/13 03:36:57;;;;;;;3.37;1.90;;;;;;;7.60;100.00;100569.48;1736788;81;20943;-83
2022/11/13 03:39:43;;;;;;;3.27;1.75;;;;;;;7.57;100.00;100571.94;1737501;82;21525;-85
2022/11/13 03:42:29;;;;;;;4.72;1.98;;;;;;;7.57;100.00;100572.75;1733780;82;21783;-83
2022/11/13 03:45:14;;;;;;;4.90;2.10;;;;;;;7.57;100.00;100574.66;1737410;82;21049;-85
2022/11/13 03:48:00;;;;;;;5.45;2.12;;;;;;;7.57;100.00;100577.40;1728126;82;21006;-84
2022/11/13 03:50:49;;;;;;;6.58;1.75;;;;;;;7.56;100.00;100569.75;1710160;81;20875;-82
2022/11/13 03:53:34;;;;;;;3.25;2.10;;;;;;;7.56;100.00;100573.02;1706544;83;20986;-82
2022/11/13 03:56:20;;;;;;;4.62;2.87;;;;;;;7.56;100.00;100568.92;1707062;82;22125;-82
2022/11/13 03:59:05;;;;;;;5.12;2.10;;;;;;;7.55;100.00;100579.03;1706110;83;21532;-83
2022/11/13 04:01:50;;;;;;;3.60;2.10;;;;;;;7.57;100.00;100583.69;1705981;82;21011;-81
2022/11/13 04:04:36;;;;;;;4.55;2.42;;;;;;;7.58;100.00;100580.41;1706037;84;20955;-82
2022/11/13 04:07:22;;;;;;;4.97;1.95;;;;;;;7.59;100.00;100576.58;1706016;82;20994;-80
2022/11/13 04:10:08;;;;;;;2.98;1.90;;;;;;;7.58;100.00;100579.86;1708414;82;21170;-82
2022/11/13 04:12:53;;;;;;;2.95;2.05;;;;;;;7.58;100.00;100579.86;1706009;84;20950;-82
2022/11/13 04:15:39;;;;;;;2.85;1.70;;;;;;;7.59;100.00;100585.60;1706071;84;20868;-84
2022/11/13 04:18:25;;;;;;;3.15;1.50;;;;;;;7.60;100.00;100577.68;1706054;84;21002;-74
2022/11/13 04:21:10;;;;;;;4.33;1.60;;;;;;;7.63;100.00;100581.78;1706916;83;20991;-74
2022/11/13 04:23:55;;;;;;;2.50;1.47;;;;;;;7.62;100.00;100585.06;1709595;83;21505;-75
2022/11/13 04:26:40;;;;;;;1.87;1.40;;;;;;;7.63;100.00;100577.14;1708627;82;20943;-74
2022/11/13 04:29:25;;;;;;;1.90;1.30;;;;;;;7.65;100.00;100576.05;1709349;83;21568;-75
2022/11/13 04:32:11;;;;;;;4.50;1.40;;;;;;;7.67;100.00;100573.86;1708409;83;21007;-75
2022/11/13 04:34:57;;;;;;;1.62;1.30;;;;;;;7.68;100.00;100567.30;1706120;84;20896;-77
2022/11/13 04:37:42;;;;;;;1.62;1.25;;;;;;;7.67;100.00;100566.48;1707662;82;21560;-81
2022/11/13 04:40:27;;;;;;;3.00;1.52;;;;;;;7.68;100.00;100571.41;1708970;83;21023;-83
2022/11/13 04:43:12;;;;;;;2.40;1.65;;;;;;;7.66;100.00;100573.59;1707476;82;21065;-86
2022/11/13 04:45:57;;;;;;;6.50;1.65;;;;;;;7.64;100.00;100573.86;1708040;83;20918;-83
2022/11/13 04:48:43;;;;;;;3.10;1.82;;;;;;;7.65;100.00;100574.68;1707904;82;21062;-78
2022/11/13 04:51:27;;;;;;;4.20;1.90;;;;;;;7.62;100.00;100577.41;1706715;83;21493;-82
2022/11/13 04:54:13;;;;;;;5.30;2.02;;;;;;;7.61;100.00;100581.23;1705990;84;21070;-81
2022/11/13 04:56:58;;;;;;;4.03;2.22;;;;;;;7.60;100.00;100579.59;1706859;82;21553;-79
2022/11/13 04:59:43;;;;;;;5.72;2.40;;;;;;;7.61;100.00;100586.70;1705980;83;21070;-80
2022/11/13 05:02:28;;;;;;;6.42;3.30;;;;;;;7.62;100.00;100585.61;1706032;84;21454;-80
2022/11/13 05:05:16;;;;;;;4.87;2.25;;;;;;;7.59;100.00;100591.06;1707239;82;21152;-80
2022/11/13 05:08:01;;;;;;;4.55;2.02;;;;;;;7.56;100.00;100591.61;1707619;83;20938;-77
2022/11/13 05:10:47;;;;;;;3.92;2.20;;;;;;;7.56;100.00;100594.34;1707047;82;21037;-77
2022/11/13 05:13:34;;;;;;;4.50;2.25;;;;;;;7.56;100.00;100598.44;1708585;82;20990;-76
2022/11/13 05:16:20;;;;;;;5.08;2.87;;;;;;;7.55;100.00;100586.41;1707402;82;21029;-79
2022/11/13 05:19:06;;;;;;;6.10;2.72;;;;;;;7.65;100.00;100590.53;1709188;82;21482;-80
2022/11/13 05:21:51;;;;;;;5.65;2.37;;;;;;;7.63;100.00;100594.91;1707426;82;21041;-80
2022/11/13 05:24:38;;;;;;;4.25;2.25;;;;;;;7.66;100.00;100593.54;1713044;82;21118;-79
2022/11/13 05:27:23;;;;;;;4.08;2.30;;;;;;;7.64;100.00;100598.45;1736222;82;21074;-78
2022/11/13 05:30:09;;;;;;;5.97;2.02;;;;;;;7.59;100.00;100593.80;1732761;81;21254;-78
2022/11/13 05:32:54;;;;;;;3.27;2.25;;;;;;;7.57;100.00;100591.06;1733958;81;21235;-79
2022/11/13 05:35:39;;;;;;;3.27;2.33;;;;;;;7.54;100.00;100589.69;1731025;82;21067;-80
2022/11/13 05:38:24;;;;;;;8.95;4.17;;;;;;;7.53;100.00;100589.41;1733161;81;20936;-80
2022/11/13 05:41:12;;;;;;;4.08;2.30;;;;;;;7.53;100.00;100592.14;1734496;82;21609;-80
2022/11/13 05:43:58;;;;;;;5.28;2.50;;;;;;;7.53;100.00;100594.06;1736092;82;20952;-80
2022/11/13 05:46:44;;;;;;;2.40;1.92;;;;;;;7.53;100.00;100596.79;1735825;82;21891;-75
2022/11/13 05:49:29;;;;;;;3.10;2.27;;;;;;;7.53;100.00;100602.25;1736918;82;20852;-82
2022/11/13 05:52:14;;;;;;;7.50;2.92;;;;;;;7.55;100.00;100602.26;1733606;82;20924;-82
2022/11/13 05:54:59;;;;;;;5.45;2.42;;;;;;;7.58;100.00;100610.47;1733804;82;21467;-78
2022/11/13 05:57:44;;;;;;;3.80;2.02;;;;;;;7.60;100.00;100607.73;1754698;80;20991;-75
2022/11/13 06:00:29;;;;;;;8.35;2.83;;;;;;;7.61;100.00;100608.02;1768065;79;21124;-79
2022/11/13 06:03:15;;;;;;;4.97;2.42;;;;;;;7.61;100.00;100608.56;1741560;81;20988;-80
2022/11/13 06:06:00;;;;;;;8.05;2.72;;;;;;;7.61;100.00;100607.20;1736984;82;20909;-79
2022/11/13 06:08:45;;;;;;;5.05;2.77;;;;;;;7.60;100.00;100611.02;1737388;81;21064;-81
2022/11/13 06:11:31;;;;;;;7.55;3.70;;;;;;;7.59;100.00;100604.73;1738939;82;20945;-78
2022/11/13 06:14:17;;;;;;;4.03;2.42;;;;;;;7.60;100.00;100617.84;1710575;81;21270;-76
2022/11/13 06:17:01;;;;;;;4.17;2.83;;;;;;;7.61;100.00;100616.21;1735069;81;20905;-78
2022/11/13 06:19:47;;;;;;;4.30;3.00;;;;;;;7.62;100.00;100608.84;1736914;81;20933;-78
2022/11/13 06:22:33;;;;;;;7.35;2.70;;;;;;;7.63;100.00;100615.94;1736808;82;20992;-87
2022/11/13 06:25:18;;;;;;;6.17;2.83;;;;;;;7.64;100.00;100617.58;1735407;81;20933;-79
2022/11/13 06:28:03;;;;;;;6.83;3.33;;;;;;;7.66;100.00;100624.15;1739092;82;21265;-80
2022/11/13 06:30:49;;;;;;;5.70;3.40;;;;;;;7.69;100.00;100631.27;1738025;81;20909;-83
2022/11/13 06:33:34;;;;;;;12.63;4.22;;;;;;;7.70;100.00;100626.07;1737212;82;20996;-81
2022/11/13 06:36:25;;;;;;;5.42;3.17;;;;;;;7.75;100.00;100628.81;1736197;81;21412;-79
2022/11/13 06:39:11;;;;;;;4.65;2.98;;;;;;;7.80;100.00;100623.91;1737408;82;21084;-90
2022/11/13 06:41:55;;;;;;;6.87;2.95;;;;;;;7.84;100.00;100620.91;1708658;82;21880;-80
2022/11/13 06:44:40;;;;;;;5.22;2.98;;;;;;;7.85;100.00;100621.17;1736190;81;20909;-84
2022/11/13 06:47:27;;;;;;;8.50;2.70;;;;;;;7.85;100.00;100623.91;1736012;82;21467;-80
2022/11/13 06:50:12;;;;;;;4.15;2.65;;;;;;;7.86;100.00;100625.00;1735432;81;21039;-87
2022/11/13 06:52:58;;;;;;;4.40;2.83;;;;;;;7.87;100.00;100618.99;1736839;82;20920;-84
2022/11/13 06:55:48;;;;;;;9.20;3.15;;;;;;;7.87;100.00;100618.99;1735244;82;21875;-85
2022/11/13 06:58:33;;;;;;;6.87;3.37;;;;;;;7.91;100.00;100614.62;1734954;81;21541;-79
2022/11/13 07:01:22;;;;;;;5.72;3.25;;;;;;;7.95;100.00;100618.45;1704502;82;21027;-79
2022/11/13 07:04:10;;;;;;;6.67;4.00;;;;;;;7.98;100.00;100617.91;1736708;81;20933;-80
2022/11/13 07:06:57;;;;;;;10.40;4.42;;;;;;;8.00;100.00;100617.09;1711021;82;20953;-81
2022/11/13 07:09:44;;;;;;;8.18;4.22;;;;;;;8.01;100.00;100617.91;1697316;83;21945;-84
2022/11/13 07:12:29;;;;;;;7.67;4.03;;;;;;;8.03;100.00;100614.36;1697702;84;21016;-76
2022/11/13 07:15:16;;;;;;;5.42;3.42;;;;;;;8.07;100.00;100611.36;1697391;84;20964;-84
2022/11/13 07:18:02;;;;;;;6.40;3.37;;;;;;;8.09;100.00;100608.59;1694162;84;21447;-85
2022/11/13 07:20:47;;;;;;;6.05;3.55;;;;;;;8.11;100.00;100607.77;1690524;84;20944;-79
2022/11/13 07:23:35;;;;;;;6.55;3.17;;;;;;;8.13;100.00;100604.22;1697223;84;21112;-78
2022/11/13 07:26:21;;;;;;;5.67;3.02;;;;;;;8.18;100.00;100611.60;1670601;84;20945;-80
2022/11/13 07:29:06;;;;;;;4.90;2.80;;;;;;;8.21;100.00;100610.50;1697162;83;20992;-79
2022/11/13 07:31:52;;;;;;;6.60;2.60;;;;;;;8.23;100.00;100618.44;1693841;84;20907;-82
2022/11/13 07:34:38;;;;;;;4.92;2.50;;;;;;;8.25;100.00;100617.62;1695285;82;20945;-88
2022/11/13 07:37:23;;;;;;;4.95;2.92;;;;;;;8.31;100.00;100616.52;1693772;84;21141;-83
2022/11/13 07:40:09;;;;;;;4.42;2.25;;;;;;;8.35;100.00;100617.64;1696605;82;20901;-84
2022/11/13 07:42:59;;;;;;;6.92;2.92;;;;;;;8.37;100.00;100608.61;1688923;84;21020;-80
2022/11/13 07:45:44;;;;;;;4.35;2.77;;;;;;;8.38;100.00;100611.62;1669568;84;21104;-83
2022/11/13 07:48:29;;;;;;;3.98;2.52;;;;;;;8.38;100.00;100611.62;1669363;84;21544;-84
2022/11/13 07:51:15;;;;;;;6.72;2.70;;;;;;;8.44;100.00;100615.17;1672019;84;21282;-83
2022/11/13 07:54:00;;;;;;;4.25;2.33;;;;;;;8.44;100.00;100611.89;1672693;84;21016;-82
2022/11/13 07:56:46;;;;;;;3.22;1.90;;;;;;;8.46;100.00;100613.80;1682032;85;20951;-84
2022/11/13 07:59:32;;;;;;;1.98;1.37;;;;;;;8.49;100.00;100608.33;1670804;84;21063;-83
2022/11/13 08:02:19;;;;;;;3.70;1.65;;;;;;;8.51;100.00;100611.06;1677071;85;21048;-83
2022/11/13 08:05:04;;;;;;;2.60;1.80;;;;;;;8.51;100.00;100613.80;1707745;82;21111;-81
2022/11/13 08:07:51;;;;;;;2.65;1.60;;;;;;;8.50;100.00;100617.63;1707615;83;21018;-77
2022/11/13 08:10:40;;;;;;;4.05;1.55;;;;;;;8.52;100.00;100620.09;1708481;82;20947;-76
2022/11/13 08:13:26;;;;;;;1.67;1.20;;;;;;;8.56;100.00;100622.55;1703474;82;21131;-83
2022/11/13 08:16:12;;;;;;;2.42;0.93;;;;;;;8.60;100.00;100630.48;1637407;87;20959;-83
2022/11/13 08:18:58;;;;;;;2.00;1.20;;;;;;;8.64;100.00;100624.73;1664253;85;21453;-81
2022/11/13 08:21:44;;;;;;;4.05;1.10;;;;;;;8.68;100.00;100615.38;1669398;86;21003;-85
2022/11/13 08:24:30;;;;;;;1.15;0.85;;;;;;;8.73;100.00;100618.11;1673535;84;20996;-82
2022/11/13 08:27:17;;;;;;;3.83;1.52;;;;;;;8.77;100.00;100617.83;1705952;82;21573;-84
2022/11/13 08:30:02;;;;;;;5.30;2.20;;;;;;;8.80;100.00;100619.46;1642114;85;21474;-81
2022/11/13 08:32:47;;;;;;;4.47;2.02;;;;;;;8.82;100.00;100629.59;1677055;85;21117;-83
2022/11/13 08:35:32;;;;;;;6.60;1.85;;;;;;;8.80;100.00;100630.41;1707284;83;21006;-80
2022/11/13 08:38:17;;;;;;;3.75;2.00;;;;;;;8.79;100.00;100629.32;1707503;82;21058;-78
2022/11/13 08:41:04;;;;;;;4.30;2.05;;;;;;;8.78;100.00;100629.87;1720057;81;21058;-80
2022/11/13 08:43:49;;;;;;;3.37;1.55;;;;;;;8.77;100.00;100633.70;1734464;81;21011;-81
2022/11/13 08:46:34;;;;;;;4.83;1.90;;;;;;;8.76;100.00;100633.98;1738305;82;21876;-81
2022/11/13 08:49:19;;;;;;;4.42;2.17;;;;;;;8.77;100.00;100630.14;1736740;81;20986;-82
2022/11/13 08:52:06;;;;;;;3.95;1.50;;;;;;;8.78;100.00;100626.31;1737903;81;21063;-80
2022/11/13 08:54:53;;;;;;;1.82;1.20;;;;;;;8.80;100.00;100626.30;1736136;81;21106;-81
2022/11/13 08:57:39;;;;;;;1.98;1.07;;;;;;;8.81;100.00;100622.47;1737058;81;21062;-79
2022/11/13 09:00:24;;;;;;;4.30;1.95;;;;;;;8.83;100.00;100620.27;1733907;80;21137;-85
2022/11/13 09:03:11;;;;;;;4.70;1.90;;;;;;;8.88;100.00;100615.33;1729224;81;21442;-80
2022/11/13 09:05:56;;;;;;;4.60;1.80;;;;;;;8.90;100.00;100609.03;1738820;81;21181;-77
2022/11/13 09:08:42;;;;;;;2.90;1.70;;;;;;;8.92;100.00;100609.57;1735283;81;21022;-80
2022/11/13 09:11:27;;;;;;;3.42;2.05;;;;;;;8.96;100.00;100602.44;1674286;85;21602;-84
2022/11/13 09:14:13;;;;;;;3.80;2.30;;;;;;;8.97;100.00;100602.70;1705026;82;21174;-84
2022/11/13 09:16:59;;;;;;;5.85;2.58;;;;;;;8.99;100.00;100604.62;1697162;82;20949;-84
2022/11/13 09:19:45;;;;;;;4.47;2.55;;;;;;;9.01;100.00;100603.80;1697201;84;21638;-77
2022/11/13 09:22:34;;;;;;;3.52;1.82;;;;;;;9.03;100.00;100602.96;1697092;84;21029;-79
2022/11/13 09:25:19;;;;;;;3.90;1.75;;;;;;;9.09;100.00;100601.84;1699471;83;21024;-79
2022/11/13 09:28:05;;;;;;;2.55;1.60;;;;;;;9.13;100.00;100600.73;1701658;83;21270;-80
2022/11/13 09:30:51;;;;;;;3.77;2.17;;;;;;;9.14;100.00;100599.08;1709836;83;21558;-80
2022/11/13 09:33:39;;;;;;;4.83;2.12;;;;;;;9.20;100.00;100606.19;1703713;84;21554;-79
2022/11/13 09:36:24;;;;;;;5.05;1.92;;;;;;;9.25;100.00;100592.98;1704369;82;21053;-79
2022/11/13 09:39:16;;;;;;;3.95;1.80;;;;;;;9.24;100.00;100594.90;1696986;84;21033;-79
2022/11/13 09:42:15;;;;;;;2.30;1.32;;;;;;;9.27;100.00;100586.12;1696967;82;21212;-78
2022/11/13 09:45:06;;;;;;;2.33;1.52;;;;;;;9.30;100.00;100586.66;1701773;84;21048;-79
2022/11/13 09:48:02;;;;;;;5.67;2.33;;;;;;;9.32;100.00;100583.08;1647714;82;21283;-78
2022/11/13 09:50:51;;;;;;;3.50;2.20;;;;;;;9.36;100.00;100581.42;1665124;84;20923;-79
2022/11/13 09:53:45;;;;;;;4.37;2.30;;;;;;;9.37;100.00;100578.95;1696914;84;21108;-79
2022/11/13 09:56:47;;;;;;;5.08;2.17;;;;;;;9.38;100.00;100584.70;1697373;83;21275;-79
2022/11/13 09:59:39;;;;;;;;;;;;;;;9.38;100.00;100584.14;1706838;84;22145;-78
2022/11/13 10:02:51;;;;;;;2.67;1.82;;;;;;;9.38;100.00;100575.92;1666717;84;20170;-79
2022/11/13 10:06:17;;;;;;;3.87;1.40;;;;;;;9.38;100.00;100577.30;1708963;84;21060;-78
2022/11/13 10:09:31;;;;;;;4.35;2.15;;;;;;;9.40;100.00;100579.75;1706209;84;21084;-79
2022/11/13 10:12:23;;;;;;;5.37;3.90;;;;;;;9.43;100.00;100570.96;1703052;84;21802;-79
2022/11/13 10:15:14;;;;;;;3.92;3.02;;;;;;;9.43;100.00;100576.45;1671353;84;21080;-78
2022/11/13 10:18:18;;;;;;;6.42;3.12;;;;;;;9.39;100.00;100579.48;1649850;85;20969;-79
2022/11/13 10:21:31;;;;;;;3.27;2.50;;;;;;;9.40;100.00;100577.02;1706975;82;20931;-82
2022/11/13 10:24:22;;;;;;;6.83;4.90;;;;;;;9.43;100.00;100581.92;1672043;84;21041;-78
2022/11/13 10:27:15;;;;;;;5.17;2.87;;;;;;;9.47;100.00;100576.15;1716343;81;21177;-89
2022/11/13 10:30:07;;;;;;;3.50;2.25;;;;;;;9.50;100.00;100570.92;1684449;82;21569;-85
2022/11/13 10:32:58;;;;;;;3.60;1.80;;;;;;;9.55;100.00;100570.89;1708695;82;21572;-81
2022/11/13 10:36:05;;;;;;;4.70;3.08;;;;;;;9.58;100.00;100564.84;1709709;84;21015;-81
2022/11/13 10:39:02;;;;;;;3.60;2.00;;;;;;;9.63;100.00;100565.91;1705153;82;21511;-83
2022/11/13 10:41:54;;;;;;;3.30;2.55;;;;;;;9.66;100.00;100570.27;1677677;84;21550;-85
2022/11/13 10:44:40;;;;;;;3.98;2.67;;;;;;;9.68;100.00;100564.50;1699793;82;20949;-78
2022/11/13 10:47:30;;;;;;;5.22;2.02;;;;;;;9.67;100.00;100562.86;1670287;84;20932;-80
2022/11/13 10:50:31;;;;;;;5.87;2.45;;;;;;;9.68;100.00;100570.80;1659595;84;20995;-78
2022/11/13 10:53:20;;;;;;;8.20;2.90;;;;;;;9.65;100.00;100566.44;1673616;84;20988;-83
2022/11/13 10:56:30;;;;;;;6.17;1.62;;;;;;;9.63;100.00;100565.36;1705869;84;21162;-83
2022/11/13 10:59:21;;;;;;;4.05;1.98;;;;;;;9.60;100.00;100561.81;1699343;82;20945;-86
2022/11/13 11:02:24;;;;;;;5.53;2.15;;;;;;;9.60;100.00;100555.78;1696919;82;20981;-77
2022/11/13 11:05:23;;;;;;;8.43;3.00;;;;;;;9.65;100.00;100553.55;1671635;84;21079;-79
2022/11/13 11:08:09;;;;;;;5.87;2.80;;;;;;;9.74;100.00;100549.10;1707312;84;21300;-89
2022/11/13 11:14:30;;;;;;;3.22;1.72;;;;;;;9.85;100.00;100550.63;1666770;84;20960;-82
2022/11/13 11:17:15;;;;;;;4.53;1.32;;;;;;;9.92;100.00;100558.53;1697404;82;21072;-86
2022/11/13 11:20:15;;;;;;;2.10;1.10;;;;;;;9.90;100.00;100557.45;1681621;83;21037;-77
2022/11/13 11:23:12;;;;;;;2.22;1.32;;;;;;;9.90;100.00;100553.89;1735619;82;21078;-79
2022/11/13 11:26:29;;;;;;;2.15;1.37;;;;;;;9.87;100.00;100553.91;1670416;85;21118;-83
2022/11/13 11:29:31;;;;;;;4.75;2.35;;;;;;;9.81;100.00;100555.08;1731925;82;21043;-84
2022/11/13 11:32:22;;;;;;;3.58;1.80;;;;;;;9.79;100.00;100548.25;1734847;82;21015;-89
2022/11/13 11:35:18;;;;;;;5.20;4.47;;;;;;;9.80;100.00;100550.70;1734248;81;21122;-82
2022/11/13 11:38:16;;;;;;;6.80;3.90;;;;;;;9.83;100.00;100556.95;1698895;81;21594;-88
2022/11/13 11:41:15;;;;;;;2.02;1.50;;;;;;;9.82;100.00;100553.95;1683276;83;20991;-78
2022/11/13 11:44:44;;;;;;;1.92;1.50;;;;;;;9.76;100.00;100542.78;1706995;82;21015;-78
2022/11/13 11:47:32;;;;;;;4.00;1.92;;;;;;;9.69;100.00;100541.47;1737025;82;21043;-75
2022/11/13 11:50:26;;;;;;;3.35;1.87;;;;;;;9.63;100.00;100541.23;1730227;82;21083;-75
2022/11/13 11:53:58;;;;;;;4.55;2.05;;;;;;;9.63;100.00;100543.42;1733144;82;21071;-77
2022/11/13 11:56:56;;;;;;;6.80;3.08;;;;;;;9.63;100.00;100542.05;1736948;81;21978;-76
2022/11/13 11:59:59;;;;;;;3.17;2.05;;;;;;;9.60;100.00;100529.73;1729537;82;21498;-77
2022/11/13 12:03:18;;;;;;;4.37;1.55;;;;;;;9.62;100.00;100536.86;1734581;82;21028;-77
2022/11/13 12:06:23;;;;;;;4.75;1.98;;;;;;;9.64;100.00;100534.64;1707062;81;21450;-76
2022/11/13 12:09:18;;;;;;;3.10;1.30;;;;;;;9.65;100.00;100531.62;1729477;81;21494;-77
2022/11/13 12:12:30;;;;;;;5.12;2.10;;;;;;;9.69;100.00;100525.02;1723031;81;21879;-76
2022/11/13 12:15:41;;;;;;;6.75;1.77;;;;;;;9.69;100.00;100531.31;1718545;83;20978;-76
2022/11/13 12:18:44;;;;;;;1.85;0.95;;;;;;;9.68;100.00;100536.53;1714067;83;21016;-76
2022/11/13 12:21:59;;;;;;;2.40;1.67;;;;;;;9.65;100.00;100528.06;1699270;82;20944;-76
2022/11/13 12:25:37;;;;;;;3.08;1.90;;;;;;;9.62;100.00;100519.86;1672236;84;20993;-76
2022/11/13 12:28:45;;;;;;;4.05;2.40;;;;;;;9.63;100.00;100522.05;1662444;84;20944;-77
2022/11/13 12:31:49;;;;;;;4.67;2.33;;;;;;;9.64;100.00;100521.76;1668884;84;21010;-76
2022/11/13 12:34:43;;;;;;;3.17;1.70;;;;;;;9.69;100.00;100525.02;1695913;82;21550;-75
2022/11/13 12:37:59;;;;;;;2.33;1.25;;;;;;;9.71;100.00;100516.77;1700746;84;21470;-74
2022/11/13 12:41:09;;;;;;;2.60;1.10;;;;;;;9.70;100.00;100509.65;1702926;82;21608;-76
2022/11/13 12:44:20;;;;;;;2.10;1.15;;;;;;;9.68;100.00;100522.83;1698566;84;21271;-77
2022/11/13 12:47:07;;;;;;;1.35;1.05;;;;;;;9.67;100.00;100523.93;1692735;83;20980;-78
2022/11/13 12:50:09;;;;;;;1.57;1.10;;;;;;;9.72;100.00;100513.48;1699038;84;21019;-77
2022/11/13 12:53:05;;;;;;;6.37;1.50;;;;;;;9.74;100.00;100518.13;1704842;82;21018;-77
2022/11/13 12:56:02;;;;;;;3.15;1.98;;;;;;;9.72;100.00;100517.03;1696685;84;20901;-77
2022/11/13 12:58:59;;;;;;;5.22;2.17;;;;;;;9.70;100.00;100512.94;1735039;82;21556;-75
2022/11/13 13:01:56;;;;;;;2.83;2.00;;;;;;;9.69;100.00;100526.39;1666410;84;21416;-75
2022/11/13 13:05:11;;;;;;;2.55;1.37;;;;;;;9.69;100.00;100521.72;1702708;82;20991;-76
2022/11/13 13:08:18;;;;;;;6.05;1.75;;;;;;;9.66;100.00;100518.17;1697851;84;20951;-76
2022/11/13 13:11:15;;;;;;;2.95;1.87;;;;;;;9.62;100.00;100521.23;1727007;82;21069;-76
2022/11/13 13:14:21;;;;;;;3.95;2.45;;;;;;;9.62;100.00;100519.86;1699624;84;21653;-75
2022/11/13 13:17:19;;;;;;;7.17;2.12;;;;;;;9.61;100.00;100516.84;1702102;83;20888;-75
2022/11/13 13:20:19;;;;;;;3.45;2.12;;;;;;;9.62;100.00;100523.97;1765614;80;20935;-77
2022/11/13 13:23:10;;;;;;;6.28;2.35;;;;;;;9.60;100.00;100524.25;1661298;85;20929;-76
2022/11/13 13:26:07;;;;;;;5.83;2.52;;;;;;;9.57;100.00;100512.48;1727569;82;21018;-77
2022/11/13 13:29:06;;;;;;;4.62;2.50;;;;;;;9.52;100.00;100516.63;1668754;84;21007;-76
2022/11/13 13:32:26;;;;;;;4.42;2.58;;;;;;;9.51;100.00;100509.52;1672546;84;20931;-77
2022/11/13 13:35:21;;;;;;;5.50;2.45;;;;;;;9.49;100.00;100510.34;1706102;83;21456;-76
2022/11/13 13:38:27;;;;;;;10.63;3.70;;;;;;;9.46;100.00;100508.73;1675478;84;20941;-75
2022/11/13 13:41:35;;;;;;;4.20;2.10;;;;;;;9.40;100.00;100514.80;1701925;82;20936;-75
2022/11/13 13:44:44;;;;;;;4.15;2.40;;;;;;;9.34;100.00;100518.67;1657473;84;20931;-76
2022/11/13 13:47:41;;;;;;;6.58;3.33;;;;;;;9.32;100.00;100524.17;1767883;81;20998;-76
2022/11/13 13:50:32;;;;;;;10.03;3.50;;;;;;;9.30;100.00;100518.97;1734340;81;20895;-76
2022/11/13 13:53:28;;;;;;;9.00;4.05;;;;;;;9.28;100.00;100523.36;1765765;80;20923;-75
2022/11/13 13:56:21;;;;;;;8.90;3.65;;;;;;;9.28;100.00;100523.36;1737972;81;20999;-75